»·PEaware :: N982TB KFLG-KPHX

N982TB :: KFLG-KPHX

FLIGHT INFORMATION

Flight Status: Arrived
Operator: Privately registered:
United States
More flights under this callsign
Pilot: Anonymous 15639 (15639)
Aircraft: SOCATA TBM-900
(TBM9)
More flights by this aircraft type
Origin: KFLG Flagstaff Pulliam
United States
Destination: KPHX Phoenix Sky Harbor Intl
United States
More flights between these airports :: More routes between these airports
Route: FLG1 OATES DSERT DSERT2
File this flight plan on PilotEdge
Remarks: PBN / D2 DOF / 181207 REG / N982TB PER / B TALT / KPHX RMK / TCAS SIMBRIEF
Altitude:
(Current/Filed)
23,000ft
Speed:
(Current/Filed)
308kts
Departed: 07-Dec-18 08:49 AM
Arrived: 07-Dec-18 09:22 AM
Distance/Time
Traveled:
104nm/0:33
Distance/Time
To Go:
Arrived

Flight Plot

Page will automatically refresh every two minutes.

Flight plan parsing failed; only flown route is shown


Map Options




Map Legend


Flown Route
Filed Route
Departure Airport
Arrival Airport
Navaid (VOR, NDB)
Fix

Horizontal Profiles

Position Reports

Time Latitude Longitude Heading Altitude Ground
Speed
07-Dec-18 08:33 35.135648 -111.676865 222 7014ft 0kts
07-Dec-18 08:34 35.135648 -111.676865 222 7014ft 0kts
07-Dec-18 08:35 35.135648 -111.676865 222 7014ft 0kts
07-Dec-18 08:36 35.135648 -111.676865 222 7014ft 0kts
07-Dec-18 08:37 35.135648 -111.676865 222 7014ft 0kts
07-Dec-18 08:38 35.135648 -111.676865 222 7014ft 0kts
07-Dec-18 08:39 35.135648 -111.676865 222 7014ft 0kts
07-Dec-18 08:40 35.135648 -111.676865 222 7014ft 0kts
07-Dec-18 08:41 35.135648 -111.676865 222 7014ft 0kts
07-Dec-18 08:42 35.135648 -111.676865 222 7014ft 0kts
07-Dec-18 08:42 35.135441 -111.676818 130 7014ft 0kts
07-Dec-18 08:43 35.136641 -111.674925 40 7014ft 18kts
07-Dec-18 08:44 35.140386 -111.670940 40 7014ft 16kts
07-Dec-18 08:45 35.143723 -111.667387 41 7014ft 15kts
07-Dec-18 08:46 35.146974 -111.663927 40 7014ft 15kts
07-Dec-18 08:48 35.149714 -111.660192 129 7014ft 9kts
07-Dec-18 08:48 35.142125 -111.666531 214 7091ft 119kts
07-Dec-18 08:49 35.111111 -111.671133 197 8782ft 134kts
07-Dec-18 08:50 35.075111 -111.682021 184 10799ft 143kts
07-Dec-18 08:51 35.035076 -111.686396 185 13025ft 154kts
07-Dec-18 08:52 34.988697 -111.693077 187 15012ft 173kts
07-Dec-18 08:53 34.940958 -111.699785 187 17091ft 175kts
07-Dec-18 08:54 34.892729 -111.706318 188 19105ft 179kts
07-Dec-18 08:55 34.843432 -111.706608 178 20901ft 185kts
07-Dec-18 08:56 34.791486 -111.701348 179 22754ft 191kts
07-Dec-18 08:57 34.731524 -111.695270 178 23227ft 248kts
07-Dec-18 08:58 34.658342 -111.687811 177 23208ft 275kts
07-Dec-18 08:59 34.581422 -111.680006 178 23204ft 281kts
07-Dec-18 09:00 34.503350 -111.672098 178 23209ft 282kts
07-Dec-18 09:01 34.425835 -111.671537 195 23217ft 278kts
07-Dec-18 09:02 34.350558 -111.694215 195 23204ft 279kts
07-Dec-18 09:03 34.276217 -111.716882 195 22594ft 268kts
07-Dec-18 09:04 34.204965 -111.738507 195 20686ft 263kts
07-Dec-18 09:05 34.135119 -111.759649 195 19072ft 254kts
07-Dec-18 09:06 34.067885 -111.779960 194 17727ft 246kts
07-Dec-18 09:07 34.002073 -111.799796 194 16434ft 244kts
07-Dec-18 09:08 33.936591 -111.819530 194 15150ft 243kts
07-Dec-18 09:09 33.871837 -111.839014 194 13885ft 244kts
07-Dec-18 09:10 33.808121 -111.865300 200 12604ft 244kts
07-Dec-18 09:11 33.744434 -111.893692 200 11310ft 245kts
07-Dec-18 09:12 33.680656 -111.922094 200 10013ft 245kts
07-Dec-18 09:13 33.616958 -111.950417 201 8720ft 246kts
07-Dec-18 09:14 33.552971 -111.978818 201 7423ft 249kts
07-Dec-18 09:15 33.508349 -112.026735 269 6199ft 248kts
07-Dec-18 09:16 33.506370 -112.103367 236 4754ft 212kts
07-Dec-18 09:17 33.453942 -112.115421 183 3337ft 190kts
07-Dec-18 09:18 33.421647 -112.096250 75 2069ft 121kts
07-Dec-18 09:19 33.428502 -112.062052 85 1658ft 96kts
07-Dec-18 09:20 33.428872 -112.030821 91 1211ft 95kts
07-Dec-18 09:21 33.428682 -112.011216 132 1134ft 15kts
07-Dec-18 09:22 33.427736 -112.014364 272 1134ft 15kts
07-Dec-18 09:23 33.427738 -112.019888 269 1134ft 17kts
07-Dec-18 09:24 33.425866 -112.021127 179 1134ft 10kts
07-Dec-18 09:25 33.425321 -112.020955 357 1134ft 0kts
07-Dec-18 09:26 33.425321 -112.020955 357 1134ft 0kts

Navigation Log

Ident Type
Flight plan parsing failed, navigation log unavailable